Mugla, Turkey
Current Conditions -  °F | °C
As of 5:20 AM on Tuesday 23 Dec 2014 (Local Time) from LTFE Reporting Station
Clear Clear  
Wind Chill: 37°   Ceiling: Unl
Heat Index: 37°   Visibility: 6mi
Dew Point: 30°   Wind: 3mph
Humidity: 75%   Direction: 170°S
Pressure: 30.21"   Gusts: NA
Location:  37.22°N, 28.36°E
Report Text: LTFE 230320Z 17003KT 140V240 CAVOK 03/M01 Q1023 NOSIG
Loading
Personal Weather Stations






























Interactive Weather Map New forecast layout! Learn more

10-Day Weather Forecast

Advertisements
Track Severe Weather on mobile